This is the latest recevied weather packets stored in our database for station/object VE7GEL. If no packets are shown the sender has not sent any weather packets the latest 10 day(s).
| Time | Temp. | Humidity | Pressure | Rain* | Wind** | Luminosity | Snow |
|---|---|---|---|---|---|---|---|
| 1777857346 | 20.56° C | 47% | 1010.1 hPa | 0 mm | - | 344 W/m² | - |
| 1777856447 | 20.56° C | 50% | 1010.2 hPa | 0 mm | - | 407 W/m² | - |
| 1777856402 | 20.56° C | 49% | 1010.5 hPa | 0 mm | - | 412 W/m² | - |
| 1777855547 | 20.56° C | 48% | 1010.3 hPa | 0 mm | - | 461 W/m² | - |
| 1777854646 | 19.44° C | 52% | 1010.5 hPa | 0 mm | - | 525 W/m² | - |
| 1777853741 | 18.89° C | 56% | 1010.7 hPa | 0 mm | - | 585 W/m² | - |
| 1777852841 | 18.33° C | 58% | 1010.8 hPa | 0 mm | - | 639 W/m² | - |
| 1777852805 | 18.33° C | 59% | 1011.2 hPa | 0 mm | - | 643 W/m² | - |
| 1777851942 | 18.33° C | 60% | 1011.1 hPa | 0 mm | - | 697 W/m² | - |
| 1777851902 | 17.78° C | 60% | 1011.4 hPa | 0 mm | - | 701 W/m² | - |
| 1777851039 | 18.33° C | 62% | 1011.2 hPa | 0 mm | - | 756 W/m² | - |
| 1777850141 | 18.33° C | 63% | 1011.3 hPa | 0 mm | - | 783 W/m² | - |
| 1777850102 | 18.33° C | 62% | 1011.6 hPa | 0 mm | - | 795 W/m² | - |
| 1777849239 | 17.78° C | 65% | 1011.5 hPa | 0 mm | - | 851 W/m² | - |
| 1777849202 | 17.78° C | 65% | 1011.8 hPa | 0 mm | - | 854 W/m² | - |
| 1777848340 | 16.67° C | 72% | 1011.6 hPa | 0 mm | - | 896 W/m² | - |
| 1777847441 | 18.33° C | 69% | 1011.8 hPa | 0 mm | - | 931 W/m² | - |
| 1777846539 | 21.67° C | 57% | 1012.1 hPa | 0 mm | - | 1086 W/m² | - |
| 1777845634 | 25.56° C | 38% | 1011.9 hPa | 0 mm | - | 57 W/m² | - |
| 1777845602 | 25.56° C | 38% | 1012.2 hPa | 0 mm | - | 57 W/m² | - |
| 1777844736 | 25.56° C | 38% | 1012 hPa | 0 mm | - | 54 W/m² | - |
| 1777844705 | 25.56° C | 39% | 1012.3 hPa | 0 mm | - | 54 W/m² | - |
| 1777843836 | 25° C | 40% | 1012.1 hPa | 0 mm | - | 53 W/m² | - |
| 1777842935 | 23.89° C | 42% | 1012.2 hPa | 0 mm | - | 53 W/m² | - |
| 1777842902 | 23.89° C | 43% | 1012.6 hPa | 0 mm | - | 53 W/m² | - |
* Rain latest hour (hover to see other rain measurements)
** Current wind speed in m/s (hover to see current wind gust speed)